Time;durP1;ratioP1;P1;durP2;ratioP2;P2;SDS_P1;SDS_P2;PMS_P1;PMS_P2;Temp;Humidity;BMP_temperature;BMP_pressure;BME280_temperature;BME280_humidity;BME280_pressure;Samples;Min_cycle;Max_cycle;Signal;HPM_P1;HPM_P2
2023/04/18 00:01:08;;;;;;;1.47;1.10;;;9.80;97.10;;;;;;4959169;28;20547;-76
2023/04/18 00:03:39;;;;;;;1.50;1.27;;;9.80;97.30;;;;;;4975661;28;20454;-75
2023/04/18 00:06:06;;;;;;;1.47;1.10;;;9.70;97.20;;;;;;4958869;28;20510;-76
2023/04/18 00:11:10;;;;;;;1.80;1.70;;;9.70;96.90;;;;;;5027290;28;20609;-79
2023/04/18 00:13:37;;;;;;;1.50;1.20;;;9.70;96.90;;;;;;4996066;28;20499;-77
2023/04/18 00:16:04;;;;;;;1.50;1.20;;;9.60;96.90;;;;;;4955507;28;20583;-78
2023/04/18 00:18:31;;;;;;;1.50;1.13;;;9.60;96.70;;;;;;4971303;28;20554;-77
2023/04/18 00:20:59;;;;;;;1.50;1.20;;;9.60;97.10;;;;;;4958479;28;20560;-76
2023/04/18 00:23:26;;;;;;;1.50;1.20;;;9.50;96.70;;;;;;4974507;28;20465;-75
2023/04/18 00:25:53;;;;;;;1.50;1.30;;;9.50;96.80;;;;;;4948641;28;20463;-76
2023/04/18 00:28:20;;;;;;;1.50;1.20;;;9.50;96.60;;;;;;4967035;28;20458;-77
2023/04/18 00:30:47;;;;;;;1.50;1.20;;;9.40;96.60;;;;;;4958736;28;20885;-76
2023/04/18 00:33:14;;;;;;;1.50;1.20;;;9.40;96.10;;;;;;4963635;28;20536;-75
2023/04/18 00:35:41;;;;;;;3.03;2.50;;;9.40;95.80;;;;;;4962935;28;20476;-79
2023/04/18 00:38:09;;;;;;;1.50;1.20;;;9.30;95.70;;;;;;4953457;28;20494;-76
2023/04/18 00:40:36;;;;;;;1.50;1.10;;;9.30;96.00;;;;;;4967181;28;20871;-76
2023/04/18 00:43:03;;;;;;;1.50;1.20;;;9.30;95.60;;;;;;4995047;28;20535;-77
2023/04/18 00:45:30;;;;;;;1.50;1.20;;;9.30;95.50;;;;;;4978403;28;20540;-78
2023/04/18 00:47:57;;;;;;;1.50;1.20;;;9.20;95.40;;;;;;4964796;28;20485;-76
2023/04/18 00:50:24;;;;;;;1.50;1.30;;;9.20;95.50;;;;;;4963567;28;20504;-75
2023/04/18 00:52:51;;;;;;;1.50;1.10;;;9.20;95.30;;;;;;4963159;28;20497;-76
2023/04/18 00:55:20;;;;;;;1.50;1.30;;;9.20;95.30;;;;;;4966495;28;20494;-75
2023/04/18 00:57:46;;;;;;;1.50;1.20;;;9.10;95.30;;;;;;4953900;28;20496;-75
2023/04/18 01:00:14;;;;;;;1.50;1.10;;;9.10;95.80;;;;;;4961055;28;20878;-75
2023/04/18 01:02:41;;;;;;;1.50;1.20;;;9.10;95.90;;;;;;4964412;28;20905;-78
2023/04/18 01:05:10;;;;;;;1.50;1.37;;;9.00;96.00;;;;;;4955068;28;20516;-78
2023/04/18 01:07:39;;;;;;;1.50;1.10;;;9.00;96.10;;;;;;4952319;28;20975;-77
2023/04/18 01:10:07;;;;;;;1.50;1.30;;;9.00;96.60;;;;;;4955267;28;20498;-78
2023/04/18 01:12:36;;;;;;;1.80;1.70;;;9.00;97.10;;;;;;4967580;28;20481;-77
2023/04/18 01:15:04;;;;;;;1.50;1.20;;;8.90;97.30;;;;;;4966355;28;20463;-75
2023/04/18 01:17:33;;;;;;;1.57;1.47;;;8.90;97.50;;;;;;4959780;28;20586;-77
2023/04/18 01:20:00;;;;;;;1.80;1.70;;;8.90;97.70;;;;;;4986270;28;20481;-78
2023/04/18 01:22:28;;;;;;;1.50;1.27;;;8.80;98.20;;;;;;4975412;28;20506;-78
2023/04/18 01:24:56;;;;;;;1.50;1.30;;;8.80;98.20;;;;;;4955398;28;20471;-76
2023/04/18 01:27:23;;;;;;;1.50;1.30;;;8.80;98.20;;;;;;4960153;28;20535;-76
2023/04/18 01:29:49;;;;;;;1.47;1.10;;;8.80;98.20;;;;;;4958896;28;20489;-78
2023/04/18 01:32:18;;;;;;;1.50;1.30;;;8.70;98.20;;;;;;4956900;28;20865;-76
2023/04/18 01:34:45;;;;;;;1.50;1.40;;;8.70;98.20;;;;;;4966441;28;20505;-76
2023/04/18 01:37:12;;;;;;;1.50;1.30;;;8.70;98.20;;;;;;4950862;28;20474;-75
2023/04/18 01:39:39;;;;;;;1.50;1.30;;;8.60;98.20;;;;;;4960899;28;20486;-77
2023/04/18 01:42:07;;;;;;;1.50;1.20;;;8.60;98.20;;;;;;4993799;28;20569;-75
2023/04/18 01:44:33;;;;;;;1.50;1.20;;;8.50;98.20;;;;;;5048866;28;20460;-77
2023/04/18 01:47:00;;;;;;;1.50;1.30;;;8.50;98.20;;;;;;4961540;28;20485;-77
2023/04/18 01:49:27;;;;;;;1.50;1.20;;;8.50;98.20;;;;;;4961331;28;20847;-79
2023/04/18 01:51:54;;;;;;;1.50;1.37;;;8.40;98.20;;;;;;4952788;28;21002;-77
2023/04/18 01:54:21;;;;;;;1.53;1.43;;;8.40;98.20;;;;;;4970735;28;20470;-77
2023/04/18 01:56:47;;;;;;;1.50;1.20;;;8.40;98.20;;;;;;4965541;28;20473;-77
2023/04/18 01:59:15;;;;;;;1.50;1.40;;;8.40;98.20;;;;;;4978177;28;20481;-78
2023/04/18 02:01:42;;;;;;;1.50;1.20;;;8.30;98.20;;;;;;4951943;28;20484;-77
2023/04/18 02:04:09;;;;;;;1.50;1.20;;;8.30;98.20;;;;;;4971974;28;20462;-78
2023/04/18 02:06:36;;;;;;;1.47;1.20;;;8.30;98.20;;;;;;4964271;28;20488;-79
2023/04/18 02:09:02;;;;;;;1.50;1.20;;;8.20;98.20;;;;;;4966615;28;20485;-76
2023/04/18 02:11:30;;;;;;;1.50;1.33;;;8.20;98.20;;;;;;4965687;28;20486;-76
2023/04/18 02:13:58;;;;;;;1.50;1.40;;;8.20;98.20;;;;;;4969657;28;20468;-77
2023/04/18 02:16:26;;;;;;;1.53;1.43;;;8.10;98.20;;;;;;4956762;28;20481;-77
2023/04/18 02:18:53;;;;;;;1.50;1.20;;;8.10;98.20;;;;;;4978482;28;20462;-78
2023/04/18 02:21:20;;;;;;;1.50;1.27;;;8.10;98.20;;;;;;4950681;28;20481;-78
2023/04/18 02:23:47;;;;;;;1.50;1.20;;;8.10;98.20;;;;;;4968554;28;20473;-78
2023/04/18 02:26:14;;;;;;;1.60;1.50;;;8.10;98.20;;;;;;4955178;28;20482;-77
2023/04/18 02:28:40;;;;;;;1.50;1.37;;;8.10;98.20;;;;;;4970807;28;20462;-79
2023/04/18 02:31:13;;;;;;;1.50;1.30;;;8.10;98.20;;;;;;4962325;28;20905;-79
2023/04/18 02:33:41;;;;;;;1.50;1.10;;;8.00;98.20;;;;;;4972912;28;20493;-76
2023/04/18 02:36:08;;;;;;;1.50;1.17;;;8.00;98.20;;;;;;4952509;28;20945;-76
2023/04/18 02:38:38;;;;;;;1.50;1.20;;;8.00;98.20;;;;;;4968153;28;20914;-76
2023/04/18 02:41:04;;;;;;;1.50;1.20;;;8.00;98.20;;;;;;4963876;28;20460;-76
2023/04/18 02:43:31;;;;;;;1.50;1.30;;;8.00;98.20;;;;;;5025154;28;20870;-79
2023/04/18 02:45:59;;;;;;;1.50;1.20;;;7.90;98.20;;;;;;4980812;28;20462;-77
2023/04/18 02:48:26;;;;;;;1.50;1.30;;;7.90;98.20;;;;;;4970611;28;20569;-78
2023/04/18 02:51:02;;;;;;;1.50;1.20;;;7.90;98.20;;;;;;4950428;28;20490;-76
2023/04/18 02:53:28;;;;;;;1.50;1.30;;;7.90;98.20;;;;;;4969144;28;20490;-76
2023/04/18 02:55:55;;;;;;;1.50;1.20;;;7.80;98.20;;;;;;4957514;28;21009;-79
2023/04/18 02:58:22;;;;;;;1.50;1.20;;;7.80;98.20;;;;;;4985558;28;20477;-79
2023/04/18 03:00:49;;;;;;;1.50;1.20;;;7.80;98.20;;;;;;4948809;28;20486;-75
2023/04/18 03:03:16;;;;;;;1.60;1.50;;;7.80;98.20;;;;;;4980454;28;20991;-76
2023/04/18 03:05:43;;;;;;;1.50;1.20;;;7.70;98.20;;;;;;4966738;28;20473;-79
2023/04/18 03:08:11;;;;;;;1.50;1.30;;;7.70;98.20;;;;;;4971912;28;20482;-78
2023/04/18 03:10:38;;;;;;;1.50;1.20;;;7.70;98.20;;;;;;4961554;28;20491;-81
2023/04/18 03:13:06;;;;;;;1.50;1.20;;;7.60;98.20;;;;;;4990698;28;20655;-76
2023/04/18 03:15:32;;;;;;;1.50;1.20;;;7.60;98.20;;;;;;5004791;28;20469;-79
2023/04/18 03:17:59;;;;;;;1.50;1.30;;;7.60;98.20;;;;;;4969310;28;20516;-78
2023/04/18 03:20:26;;;;;;;1.50;1.30;;;7.60;98.20;;;;;;4968235;28;20910;-80
2023/04/18 03:22:52;;;;;;;1.50;1.20;;;7.60;98.20;;;;;;4955589;28;20482;-76
2023/04/18 03:25:20;;;;;;;1.50;1.27;;;7.60;98.20;;;;;;4968974;28;20470;-77
2023/04/18 03:27:47;;;;;;;1.60;1.50;;;7.50;98.20;;;;;;4969167;28;20481;-78
2023/04/18 03:30:14;;;;;;;1.50;1.30;;;7.50;98.20;;;;;;4968153;28;20491;-78
2023/04/18 03:32:41;;;;;;;1.50;1.30;;;7.50;98.20;;;;;;4957223;28;20486;-77
2023/04/18 03:35:09;;;;;;;1.50;1.40;;;7.40;98.20;;;;;;4969606;28;20595;-77
2023/04/18 03:37:36;;;;;;;1.57;1.47;;;7.40;98.20;;;;;;4960853;28;20539;-77
2023/04/18 03:40:04;;;;;;;1.50;1.20;;;7.40;98.20;;;;;;4965080;28;20521;-77
2023/04/18 03:42:32;;;;;;;1.50;1.20;;;7.40;98.20;;;;;;4956417;28;20538;-76
2023/04/18 03:44:59;;;;;;;1.50;1.30;;;7.40;98.20;;;;;;4960908;28;20470;-78
2023/04/18 03:47:25;;;;;;;1.50;1.30;;;7.40;98.20;;;;;;4969943;28;20500;-77
2023/04/18 03:49:53;;;;;;;1.50;1.40;;;7.30;98.20;;;;;;4968620;28;20482;-77
2023/04/18 03:52:19;;;;;;;1.50;1.27;;;7.30;98.20;;;;;;4969876;28;20528;-79
2023/04/18 03:54:46;;;;;;;1.50;1.30;;;7.30;98.20;;;;;;4967680;28;20470;-77
2023/04/18 03:57:13;;;;;;;1.60;1.30;;;7.30;98.20;;;;;;4963385;28;20557;-79
2023/04/18 03:59:41;;;;;;;1.50;1.30;;;7.30;98.20;;;;;;4971020;28;20495;-78
2023/04/18 04:02:08;;;;;;;1.57;1.40;;;7.30;98.20;;;;;;4972120;28;20473;-77
2023/04/18 04:04:35;;;;;;;1.50;1.40;;;7.30;98.20;;;;;;4973241;28;20471;-77
2023/04/18 04:07:02;;;;;;;1.50;1.37;;;7.30;98.20;;;;;;4965348;28;21012;-79
2023/04/18 04:09:29;;;;;;;1.50;1.37;;;7.20;98.20;;;;;;4971813;28;21014;-77
2023/04/18 04:11:56;;;;;;;1.60;1.50;;;7.30;98.20;;;;;;4956427;28;20486;-76
2023/04/18 04:14:23;;;;;;;1.50;1.37;;;7.20;98.20;;;;;;4959567;28;20466;-78
2023/04/18 04:16:51;;;;;;;1.60;1.40;;;7.20;98.20;;;;;;4961489;28;20858;-77
2023/04/18 04:19:18;;;;;;;1.50;1.30;;;7.20;98.20;;;;;;4971552;28;20504;-79
2023/04/18 04:21:45;;;;;;;1.57;1.30;;;7.20;98.20;;;;;;4963942;28;20481;-78
2023/04/18 04:24:13;;;;;;;1.50;1.30;;;7.20;98.20;;;;;;4980848;28;20466;-79
2023/04/18 04:26:41;;;;;;;1.50;1.30;;;7.10;98.20;;;;;;4958562;28;20652;-77
2023/04/18 04:29:08;;;;;;;1.57;1.30;;;7.10;98.20;;;;;;4979097;28;20864;-78
2023/04/18 04:31:35;;;;;;;1.50;1.30;;;7.10;98.20;;;;;;4963455;28;20816;-78
2023/04/18 04:34:04;;;;;;;1.50;1.27;;;7.00;98.20;;;;;;4981349;28;20496;-75
2023/04/18 04:36:32;;;;;;;1.50;1.30;;;7.00;98.20;;;;;;4968641;28;20484;-77
2023/04/18 04:38:59;;;;;;;1.50;1.30;;;7.00;98.20;;;;;;4981164;28;20545;-76
2023/04/18 04:41:26;;;;;;;1.53;1.40;;;6.90;98.20;;;;;;4964402;28;20886;-77
2023/04/18 04:43:53;;;;;;;1.50;1.40;;;6.90;98.20;;;;;;4980749;28;21081;-77
2023/04/18 04:46:20;;;;;;;1.50;1.30;;;6.90;98.20;;;;;;4974092;28;20484;-79
2023/04/18 04:48:46;;;;;;;1.50;1.40;;;6.90;98.20;;;;;;5019788;28;20462;-77
2023/04/18 04:51:15;;;;;;;1.50;1.30;;;6.90;98.20;;;;;;4955177;28;20475;-78
2023/04/18 04:53:41;;;;;;;1.50;1.30;;;6.90;98.20;;;;;;4987380;28;20497;-77
2023/04/18 04:56:09;;;;;;;1.50;1.40;;;7.00;98.20;;;;;;4956434;28;20517;-77
2023/04/18 04:58:36;;;;;;;1.50;1.40;;;7.00;98.20;;;;;;4976958;28;20943;-76
2023/04/18 05:01:03;;;;;;;1.50;1.40;;;7.10;98.20;;;;;;4953062;28;20990;-77
2023/04/18 05:03:30;;;;;;;1.50;1.30;;;7.10;98.20;;;;;;4980843;28;20458;-78
2023/04/18 05:05:56;;;;;;;2.67;2.47;;;7.20;98.20;;;;;;4952963;28;20519;-76
2023/04/18 05:08:25;;;;;;;1.50;1.30;;;7.20;98.20;;;;;;4980165;28;20850;-79
2023/04/18 05:10:51;;;;;;;1.50;1.27;;;7.30;98.20;;;;;;4955167;28;20513;-78
2023/04/18 05:13:19;;;;;;;1.50;1.27;;;7.40;98.20;;;;;;4958702;28;20493;-79
2023/04/18 05:15:46;;;;;;;1.50;1.20;;;7.50;98.20;;;;;;4964739;28;20663;-77
2023/04/18 05:18:13;;;;;;;1.50;1.30;;;7.50;98.20;;;;;;4954949;28;20486;-79
2023/04/18 05:20:40;;;;;;;1.50;1.20;;;7.60;98.20;;;;;;4963228;28;21087;-77
2023/04/18 05:23:07;;;;;;;1.50;1.20;;;7.60;98.20;;;;;;4977104;28;20556;-77
2023/04/18 05:25:36;;;;;;;1.50;1.40;;;7.60;98.20;;;;;;4963524;28;20569;-77
2023/04/18 05:28:04;;;;;;;1.50;1.20;;;7.50;98.20;;;;;;4972767;28;20497;-78
2023/04/18 05:30:30;;;;;;;1.50;1.20;;;7.60;98.20;;;;;;4959867;28;20490;-76
2023/04/18 05:32:57;;;;;;;1.50;1.33;;;7.60;98.20;;;;;;4971253;28;20480;-75
2023/04/18 05:35:24;;;;;;;1.50;1.20;;;7.70;98.20;;;;;;4975248;28;20804;-76
2023/04/18 05:37:51;;;;;;;1.50;1.30;;;7.70;98.20;;;;;;4980656;28;20485;-78
2023/04/18 05:40:17;;;;;;;1.50;1.20;;;7.70;98.20;;;;;;4965188;28;20970;-79
2023/04/18 05:42:45;;;;;;;1.50;1.20;;;7.80;98.20;;;;;;4958691;28;20525;-77
2023/04/18 05:45:12;;;;;;;1.50;1.10;;;7.90;98.20;;;;;;4965911;28;20466;-75
2023/04/18 05:47:39;;;;;;;1.50;1.20;;;7.90;98.20;;;;;;4966917;28;20861;-76
2023/04/18 05:50:07;;;;;;;1.50;1.20;;;8.00;98.20;;;;;;4957964;28;20493;-76
2023/04/18 05:52:34;;;;;;;1.50;1.20;;;8.00;98.20;;;;;;4967326;28;20489;-76
2023/04/18 05:55:01;;;;;;;1.50;1.30;;;8.10;98.20;;;;;;4961010;28;21002;-75
2023/04/18 05:57:28;;;;;;;1.60;1.50;;;8.20;98.20;;;;;;4969465;28;20606;-75
2023/04/18 05:59:56;;;;;;;1.50;1.10;;;8.30;98.20;;;;;;4964217;28;20505;-75
2023/04/18 06:02:22;;;;;;;1.50;1.40;;;8.40;98.20;;;;;;4964715;28;20507;-75
2023/04/18 06:04:50;;;;;;;2.77;2.47;;;8.60;98.20;;;;;;4960412;28;20961;-75
2023/04/18 06:07:17;;;;;;;1.50;1.40;;;8.70;98.20;;;;;;4963096;28;20520;-76
2023/04/18 06:09:43;;;;;;;1.50;1.40;;;8.70;98.20;;;;;;4963602;28;21100;-76
2023/04/18 06:12:10;;;;;;;1.50;1.20;;;8.80;98.20;;;;;;4956439;23;20513;-82
2023/04/18 06:14:37;;;;;;;1.50;1.30;;;8.80;98.20;;;;;;4941294;28;21017;-81
2023/04/18 06:17:08;;;;;;;1.50;1.20;;;8.90;98.20;;;;;;4942418;28;20491;-77
2023/04/18 06:19:35;;;;;;;1.50;1.10;;;9.00;98.20;;;;;;4949259;28;20554;-77
2023/04/18 06:22:02;;;;;;;1.50;1.20;;;8.90;98.20;;;;;;4939675;28;20633;-80
2023/04/18 06:24:29;;;;;;;1.50;1.20;;;8.90;98.20;;;;;;4941798;28;20885;-79
2023/04/18 06:26:56;;;;;;;2.47;2.27;;;9.00;98.20;;;;;;4935196;28;20479;-77
2023/04/18 06:29:25;;;;;;;1.50;1.10;;;9.00;98.20;;;;;;4942596;28;20539;-76
2023/04/18 06:31:52;;;;;;;1.50;1.20;;;9.10;98.20;;;;;;4927268;28;20487;-77
2023/04/18 06:34:21;;;;;;;1.50;1.30;;;9.30;98.20;;;;;;4952402;28;20491;-81
2023/04/18 06:36:48;;;;;;;1.50;1.20;;;9.40;98.20;;;;;;4929391;28;20592;-81
2023/04/18 06:39:14;;;;;;;1.50;1.17;;;9.40;98.20;;;;;;4940826;28;20516;-78
2023/04/18 06:41:41;;;;;;;1.50;1.10;;;9.60;98.20;;;;;;4928716;28;20828;-77
2023/04/18 06:44:08;;;;;;;1.80;1.40;;;9.90;98.20;;;;;;4952413;28;20483;-79
2023/04/18 06:46:35;;;;;;;1.50;1.20;;;10.20;98.20;;;;;;4929711;28;20559;-77
2023/04/18 06:49:03;;;;;;;1.50;1.20;;;10.50;98.20;;;;;;4954506;28;20996;-75
2023/04/18 06:51:34;;;;;;;1.50;1.10;;;10.70;98.20;;;;;;4927272;28;20873;-81
2023/04/18 06:54:01;;;;;;;1.50;1.13;;;10.80;98.20;;;;;;4950183;28;20492;-78
2023/04/18 06:56:28;;;;;;;1.47;1.07;;;10.80;98.20;;;;;;4928978;28;20468;-77
2023/04/18 06:58:55;;;;;;;1.50;1.13;;;10.70;98.20;;;;;;4949409;28;20460;-80
2023/04/18 07:01:22;;;;;;;2.53;1.20;;;11.00;98.20;;;;;;4930208;28;20486;-77
2023/04/18 07:03:48;;;;;;;1.90;1.50;;;11.20;98.20;;;;;;4943313;28;20468;-78
2023/04/18 07:06:15;;;;;;;1.50;1.10;;;11.40;98.20;;;;;;4932002;28;20474;-78
2023/04/18 07:08:43;;;;;;;1.50;1.10;;;11.70;97.70;;;;;;4946132;28;20463;-80
2023/04/18 07:11:12;;;;;;;1.50;1.10;;;12.00;96.80;;;;;;4928215;28;20479;-79
2023/04/18 07:13:38;;;;;;;1.50;1.20;;;12.20;95.40;;;;;;4943624;28;20530;-76
2023/04/18 07:16:06;;;;;;;1.50;1.00;;;12.20;94.30;;;;;;4929343;28;20468;-79
2023/04/18 07:18:33;;;;;;;1.50;1.10;;;12.20;94.70;;;;;;4936259;28;20468;-77
2023/04/18 07:21:00;;;;;;;1.50;1.10;;;12.30;93.70;;;;;;4925366;28;20486;-77
2023/04/18 07:23:27;;;;;;;1.50;1.10;;;12.40;93.20;;;;;;4932413;28;20470;-76
2023/04/18 07:25:57;;;;;;;1.47;1.00;;;12.60;92.80;;;;;;4928171;28;20470;-79
2023/04/18 07:28:24;;;;;;;1.50;1.10;;;12.80;92.50;;;;;;4954038;28;20923;-77
2023/04/18 07:30:51;;;;;;;1.50;1.00;;;12.90;92.10;;;;;;4926503;28;20905;-77
2023/04/18 07:33:18;;;;;;;1.47;1.00;;;13.00;91.40;;;;;;4950103;28;20610;-77
2023/04/18 07:35:45;;;;;;;1.50;1.10;;;12.80;90.70;;;;;;4930898;28;20471;-75
2023/04/18 07:38:12;;;;;;;1.50;1.10;;;12.90;91.30;;;;;;4919692;28;20476;-76
2023/04/18 07:40:39;;;;;;;1.47;1.00;;;13.00;91.90;;;;;;4929862;28;20872;-76
2023/04/18 07:43:07;;;;;;;1.47;1.00;;;13.10;90.70;;;;;;4928357;28;20495;-76
2023/04/18 07:45:35;;;;;;;1.47;1.00;;;13.00;91.30;;;;;;4930518;28;20467;-75
2023/04/18 07:48:02;;;;;;;1.50;1.00;;;13.00;91.40;;;;;;4932421;28;20913;-76
2023/04/18 07:50:28;;;;;;;1.50;1.00;;;12.90;91.40;;;;;;4929741;28;20460;-76
2023/04/18 07:52:55;;;;;;;1.50;1.10;;;12.90;92.50;;;;;;4932725;28;20566;-76
2023/04/18 07:55:22;;;;;;;1.43;1.00;;;13.00;93.10;;;;;;4929143;28;20871;-76
2023/04/18 07:57:49;;;;;;;1.50;1.00;;;13.00;92.40;;;;;;4936177;28;20491;-75
2023/04/18 08:00:20;;;;;;;1.47;1.00;;;13.00;92.20;;;;;;4928145;28;20704;-76
2023/04/18 08:02:47;;;;;;;1.43;1.00;;;13.00;92.70;;;;;;4928220;28;20514;-76
2023/04/18 08:05:13;;;;;;;1.50;1.00;;;12.80;93.70;;;;;;4928236;28;20455;-75
2023/04/18 08:07:40;;;;;;;1.50;1.00;;;12.60;94.60;;;;;;4929833;28;20497;-75
2023/04/18 08:10:08;;;;;;;1.50;1.00;;;12.50;94.60;;;;;;4926742;28;20468;-75
2023/04/18 08:12:36;;;;;;;1.47;1.00;;;12.50;95.30;;;;;;4932215;28;21018;-75
2023/04/18 08:15:02;;;;;;;1.50;1.10;;;12.40;94.90;;;;;;4929013;28;20618;-76
2023/04/18 08:17:31;;;;;;;1.50;1.10;;;12.30;94.90;;;;;;4932931;28;20490;-76
2023/04/18 08:19:58;;;;;;;1.50;1.10;;;12.30;94.80;;;;;;4923765;28;20468;-76
2023/04/18 08:22:25;;;;;;;1.50;1.10;;;12.10;95.60;;;;;;4930544;28;20566;-76
2023/04/18 08:24:52;;;;;;;1.43;0.90;;;12.20;95.70;;;;;;4924842;28;20471;-76
2023/04/18 08:27:19;;;;;;;1.47;1.00;;;12.20;95.70;;;;;;4939732;28;20511;-75
2023/04/18 08:29:45;;;;;;;1.50;1.03;;;12.20;95.50;;;;;;4926535;28;20472;-76
2023/04/18 08:32:12;;;;;;;1.50;1.00;;;12.20;96.00;;;;;;4932562;28;20579;-75
2023/04/18 08:34:41;;;;;;;1.50;1.10;;;12.20;96.10;;;;;;4932739;28;20860;-75
2023/04/18 08:37:08;;;;;;;1.50;1.03;;;12.30;95.30;;;;;;4929220;28;20491;-74
2023/04/18 08:39:43;;;;;;;1.47;1.00;;;12.20;94.70;;;;;;4934165;28;21170;-73
2023/04/18 08:42:11;;;;;;;1.50;1.03;;;12.20;94.90;;;;;;4929609;28;20585;-75
2023/04/18 08:44:38;;;;;;;1.50;1.20;;;12.20;95.80;;;;;;4928659;28;21000;-74
2023/04/18 08:47:08;;;;;;;1.50;1.07;;;12.30;95.70;;;;;;4923553;28;20826;-75
2023/04/18 08:49:35;;;;;;;3.20;3.00;;;12.60;94.40;;;;;;4931820;28;20888;-75
2023/04/18 08:52:11;;;;;;;1.50;1.00;;;12.80;94.00;;;;;;4934503;28;20566;-74
2023/04/18 08:54:40;;;;;;;1.60;1.13;;;12.90;92.80;;;;;;4927896;28;21146;-76
2023/04/18 08:57:09;;;;;;;1.47;0.90;;;12.90;92.50;;;;;;4922709;28;20995;-75
2023/04/18 08:59:36;;;;;;;1.50;1.00;;;12.90;93.80;;;;;;4931445;28;20970;-75
2023/04/18 09:02:05;;;;;;;1.40;0.93;;;12.90;94.00;;;;;;4927386;28;21165;-74
2023/04/18 09:04:36;;;;;;;1.50;1.00;;;12.80;93.50;;;;;;4934853;28;20873;-77
2023/04/18 09:07:06;;;;;;;1.50;1.10;;;12.50;94.50;;;;;;4921965;28;20513;-75
2023/04/18 09:09:47;;;;;;;1.43;1.00;;;12.50;95.50;;;;;;4937013;28;20460;-77
2023/04/18 09:12:17;;;;;;;1.47;0.90;;;12.70;95.50;;;;;;4931973;28;20491;-77
2023/04/18 09:14:45;;;;;;;2.27;1.10;;;12.70;94.90;;;;;;4929739;28;20494;-75
2023/04/18 09:17:15;;;;;;;1.50;1.00;;;12.80;93.90;;;;;;4927901;28;20483;-73
2023/04/18 09:19:53;;;;;;;1.47;1.00;;;12.80;93.80;;;;;;4933712;28;20468;-77
2023/04/18 09:22:21;;;;;;;1.43;1.00;;;13.10;94.30;;;;;;4934387;28;20491;-77
2023/04/18 09:24:54;;;;;;;1.50;1.10;;;13.30;92.90;;;;;;4930441;28;20460;-77
2023/04/18 09:27:22;;;;;;;1.50;0.97;;;13.50;93.10;;;;;;4931212;28;20513;-77
2023/04/18 09:29:50;;;;;;;1.47;1.00;;;13.60;93.20;;;;;;4929727;28;20474;-78
2023/04/18 09:32:23;;;;;;;1.47;1.00;;;13.60;93.20;;;;;;4932565;28;20499;-77
2023/04/18 09:34:53;;;;;;;1.50;1.00;;;13.60;92.70;;;;;;4931929;28;20578;-77
2023/04/18 09:37:21;;;;;;;1.50;1.00;;;13.60;93.30;;;;;;4948008;28;20501;-76
2023/04/18 09:39:50;;;;;;;1.50;0.97;;;13.60;91.90;;;;;;4928546;28;20529;-75
2023/04/18 09:42:18;;;;;;;1.50;1.00;;;13.70;92.50;;;;;;4921869;28;20487;-77
2023/04/18 09:45:02;;;;;;;1.47;0.90;;;13.50;93.20;;;;;;4924569;28;20472;-76
2023/04/18 09:47:29;;;;;;;1.50;1.00;;;13.40;92.60;;;;;;4922604;28;20494;-76
2023/04/18 09:49:56;;;;;;;1.50;1.00;;;13.50;93.60;;;;;;4925495;28;21103;-75
2023/04/18 09:52:25;;;;;;;1.50;1.10;;;13.50;93.20;;;;;;4938779;28;20486;-76
2023/04/18 09:54:57;;;;;;;1.40;1.00;;;13.60;93.70;;;;;;4928651;28;20542;-76
2023/04/18 09:57:27;;;;;;;1.50;1.20;;;13.60;93.40;;;;;;4938401;28;20509;-76
2023/04/18 09:59:59;;;;;;;1.50;1.10;;;14.00;92.60;;;;;;4928645;28;20893;-76
2023/04/18 10:02:33;;;;;;;1.50;1.10;;;14.30;92.90;;;;;;4929119;28;20961;-77
2023/04/18 10:05:00;;;;;;;1.50;1.00;;;14.80;91.90;;;;;;4928850;28;20479;-76
2023/04/18 10:07:29;;;;;;;1.50;0.90;;;15.20;89.70;;;;;;4930002;28;20483;-74
2023/04/18 10:09:55;;;;;;;1.50;1.10;;;15.30;89.50;;;;;;4930360;28;20690;-74
2023/04/18 10:12:23;;;;;;;1.43;1.00;;;15.20;88.30;;;;;;4931218;28;20497;-74
2023/04/18 10:14:50;;;;;;;1.50;1.00;;;14.90;88.50;;;;;;4942993;28;21083;-74
2023/04/18 10:17:19;;;;;;;1.50;1.00;;;14.70;89.60;;;;;;4948376;28;20541;-74
2023/04/18 10:19:46;;;;;;;1.50;1.00;;;14.80;89.80;;;;;;4929521;28;20460;-79
2023/04/18 10:22:13;;;;;;;1.50;1.00;;;15.00;90.80;;;;;;4941519;28;20488;-76
2023/04/18 10:24:48;;;;;;;1.50;0.97;;;15.20;89.90;;;;;;4931748;28;20475;-76
2023/04/18 10:27:16;;;;;;;1.50;0.93;;;14.80;88.80;;;;;;4931406;28;20567;-75
2023/04/18 10:29:47;;;;;;;1.47;0.90;;;14.90;90.00;;;;;;4934297;28;20493;-76
2023/04/18 10:32:14;;;;;;;1.50;1.00;;;15.50;88.60;;;;;;4934696;28;20571;-77
2023/04/18 10:34:41;;;;;;;1.50;0.93;;;16.20;87.10;;;;;;4935230;28;20496;-75
2023/04/18 10:37:08;;;;;;;1.50;1.10;;;16.00;86.40;;;;;;4928031;28;20483;-76
2023/04/18 10:39:57;;;;;;;1.50;1.00;;;16.00;85.70;;;;;;4929095;28;20459;-76
2023/04/18 10:42:59;;;;;;;1.50;0.97;;;15.90;87.40;;;;;;4929464;28;20497;-76
2023/04/18 10:45:30;;;;;;;1.50;1.00;;;15.70;87.10;;;;;;4937127;28;20498;-76
2023/04/18 10:48:22;;;;;;;1.50;1.00;;;15.60;87.70;;;;;;4930924;28;20583;-76
2023/04/18 10:51:16;;;;;;;1.50;1.00;;;15.30;88.10;;;;;;4917280;28;20514;-76
2023/04/18 10:53:48;;;;;;;3.53;1.87;;;15.00;88.70;;;;;;4915653;28;20476;-76
2023/04/18 10:56:16;;;;;;;1.50;1.00;;;14.70;89.40;;;;;;4923370;28;20490;-76
2023/04/18 10:58:49;;;;;;;1.50;1.00;;;14.50;90.70;;;;;;4936538;28;20965;-76
2023/04/18 11:01:24;;;;;;;1.50;1.10;;;14.70;90.00;;;;;;4919937;28;20500;-75
2023/04/18 11:03:52;;;;;;;1.47;0.97;;;14.90;90.50;;;;;;4926502;28;20470;-76
2023/04/18 11:06:18;;;;;;;1.50;1.00;;;15.10;88.70;;;;;;4922388;28;20489;-77
2023/04/18 11:08:45;;;;;;;1.50;1.00;;;15.10;89.50;;;;;;4936150;28;20464;-75
2023/04/18 11:11:13;;;;;;;1.50;1.00;;;15.10;89.50;;;;;;4924811;28;20561;-76
2023/04/18 11:13:57;;;;;;;1.40;0.90;;;15.10;89.90;;;;;;4931965;28;20476;-76
2023/04/18 11:16:27;;;;;;;1.40;1.00;;;15.00;90.60;;;;;;4928002;28;20480;-76
2023/04/18 11:18:54;;;;;;;1.60;1.20;;;15.00;92.10;;;;;;4935746;28;20460;-75
2023/04/18 11:21:21;;;;;;;1.50;1.13;;;15.00;91.50;;;;;;4926115;28;21035;-75
2023/04/18 11:23:53;;;;;;;1.50;0.90;;;15.00;91.30;;;;;;4930123;28;20459;-76
2023/04/18 11:26:20;;;;;;;1.50;1.00;;;15.00;91.70;;;;;;4924339;28;20589;-75
2023/04/18 11:28:51;;;;;;;1.70;1.10;;;15.00;92.00;;;;;;4937187;28;20496;-76
2023/04/18 11:31:22;;;;;;;1.50;1.10;;;15.10;92.20;;;;;;4925352;28;20487;-76
2023/04/18 11:33:49;;;;;;;1.47;0.97;;;15.10;91.90;;;;;;4940652;28;20464;-75
2023/04/18 11:36:16;;;;;;;1.47;1.00;;;15.10;91.60;;;;;;4926446;28;20478;-76
2023/04/18 11:38:43;;;;;;;1.50;1.00;;;15.10;92.10;;;;;;4935249;28;20464;-76
2023/04/18 11:41:13;;;;;;;1.47;0.90;;;15.10;92.40;;;;;;4923432;28;20482;-76
2023/04/18 11:43:43;;;;;;;1.47;1.00;;;15.20;93.20;;;;;;4930001;28;20988;-76
2023/04/18 11:46:10;;;;;;;1.47;1.00;;;15.50;92.80;;;;;;4916645;28;20488;-76
2023/04/18 11:48:39;;;;;;;1.50;1.00;;;15.70;90.90;;;;;;4931576;28;20541;-77
2023/04/18 11:51:07;;;;;;;1.50;1.00;;;16.10;91.60;;;;;;4917909;28;20496;-78
2023/04/18 11:53:34;;;;;;;1.50;1.00;;;16.50;89.20;;;;;;4937647;28;20483;-77
2023/04/18 11:56:02;;;;;;;1.50;1.00;;;16.60;88.10;;;;;;4917848;28;20488;-77
2023/04/18 11:58:32;;;;;;;1.50;0.93;;;16.60;88.30;;;;;;4926930;28;21001;-77
2023/04/18 12:00:59;;;;;;;1.50;0.90;;;16.50;88.80;;;;;;4917970;28;20510;-73
2023/04/18 12:03:28;;;;;;;1.50;0.90;;;16.40;89.10;;;;;;4923325;28;20571;-74
2023/04/18 12:06:01;;;;;;;1.50;1.00;;;16.30;88.50;;;;;;4916869;28;20953;-74
2023/04/18 12:08:31;;;;;;;1.50;1.00;;;16.20;89.20;;;;;;4924696;28;20487;-77
2023/04/18 12:10:58;;;;;;;1.43;0.90;;;16.30;89.80;;;;;;4917698;28;20495;-76
2023/04/18 12:13:26;;;;;;;1.50;0.90;;;16.50;88.20;;;;;;5019962;22;20505;-76
2023/04/18 12:15:53;;;;;;;1.47;0.90;;;16.70;88.60;;;;;;5025482;28;20483;-78
2023/04/18 12:18:20;;;;;;;1.50;0.90;;;16.90;88.50;;;;;;5024306;28;20474;-76
2023/04/18 12:20:50;;;;;;;1.50;1.00;;;17.20;87.70;;;;;;5022371;28;20910;-76
2023/04/18 12:23:34;;;;;;;1.50;1.00;;;17.30;89.20;;;;;;5021920;28;21037;-76
2023/04/18 12:26:02;;;;;;;1.60;1.30;;;17.10;85.90;;;;;;5028582;28;20456;-77
2023/04/18 12:28:30;;;;;;;1.50;1.00;;;16.90;88.10;;;;;;5036484;28;20519;-78
2023/04/18 12:30:56;;;;;;;1.50;1.10;;;17.00;87.30;;;;;;5018066;28;20468;-76
2023/04/18 12:33:24;;;;;;;1.50;0.90;;;17.20;87.60;;;;;;5036167;28;20482;-77
2023/04/18 12:35:52;;;;;;;1.50;0.90;;;17.40;86.00;;;;;;5015735;28;21050;-77
2023/04/18 12:38:21;;;;;;;1.50;1.00;;;17.40;85.60;;;;;;5029658;28;20496;-76
2023/04/18 12:40:49;;;;;;;1.47;0.93;;;17.40;85.70;;;;;;5022265;28;20909;-76
2023/04/18 12:43:16;;;;;;;1.93;1.63;;;17.30;86.30;;;;;;5037895;28;20482;-77
2023/04/18 12:45:43;;;;;;;1.50;0.90;;;17.20;87.20;;;;;;5030211;28;20464;-77
2023/04/18 12:48:10;;;;;;;1.50;0.90;;;17.10;87.90;;;;;;5013037;28;21080;-76
2023/04/18 12:50:37;;;;;;;1.47;0.90;;;17.20;86.90;;;;;;5031411;28;20558;-77
2023/04/18 12:53:04;;;;;;;1.50;1.00;;;17.30;86.90;;;;;;5011810;28;20483;-76
2023/04/18 12:55:31;;;;;;;1.47;0.90;;;17.30;86.90;;;;;;5029688;28;20526;-77
2023/04/18 12:58:00;;;;;;;5.73;3.43;;;17.10;86.30;;;;;;5004455;28;20494;-78
2023/04/18 13:00:29;;;;;;;1.50;0.90;;;16.90;87.70;;;;;;5029720;28;20458;-76